Time;durP1;ratioP1;P1;durP2;ratioP2;P2;SDS_P1;SDS_P2;PMS_P1;PMS_P2;Temp;Humidity;BMP_temperature;BMP_pressure;BME280_temperature;BME280_humidity;BME280_pressure;Samples;Min_cycle;Max_cycle;Signal;HPM_P1;HPM_P2
2023/01/02 00:02:14;;;;;;;6.80;4.20;;;;;;;9.11;71.34;97390.30;105311;1302;76725;-80
2023/01/02 00:04:45;;;;;;;8.10;5.50;;;;;;;9.08;71.81;97381.50;105433;1295;22971;-79
2023/01/02 00:07:17;;;;;;;7.90;3.80;;;;;;;9.06;71.68;97379.95;105357;1300;22480;-80
2023/01/02 00:09:48;;;;;;;8.30;3.90;;;;;;;9.02;71.90;97373.09;105343;1302;22491;-80
2023/01/02 00:12:23;;;;;;;9.10;4.60;;;;;;;9.00;71.94;97373.42;105212;1286;83729;-79
2023/01/02 00:14:54;;;;;;;7.10;4.20;;;;;;;8.98;72.18;97374.92;105340;1287;25402;-80
2023/01/02 00:17:25;;;;;;;8.90;5.40;;;;;;;8.96;72.22;97371.73;105418;1295;22467;-80
2023/01/02 00:19:57;;;;;;;6.00;4.20;;;;;;;8.98;72.38;97375.77;105634;1296;22487;-80
2023/01/02 00:22:29;;;;;;;7.50;4.20;;;;;;;8.94;72.39;97372.52;103942;1300;1833890;-78
2023/01/02 00:25:00;;;;;;;8.90;5.90;;;;;;;8.94;72.51;97367.34;105386;1302;22533;-80
2023/01/02 00:27:33;;;;;;;10.50;5.70;;;;;;;8.96;72.31;97364.02;105576;1302;22511;-79
2023/01/02 00:30:05;;;;;;;8.60;5.60;;;;;;;8.95;72.17;97365.91;105570;1288;25383;-79
2023/01/02 00:32:36;;;;;;;9.00;5.80;;;;;;;8.93;72.27;97364.80;105256;1274;68879;-79
2023/01/02 00:35:10;;;;;;;7.40;4.70;;;;;;;8.91;72.18;97366.89;105341;1302;24267;-79
2023/01/02 00:37:44;;;;;;;8.50;5.00;;;;;;;8.90;72.22;97363.61;105413;1294;25176;-79
2023/01/02 00:40:15;;;;;;;6.30;4.00;;;;;;;8.92;72.08;97364.47;105377;1302;25376;-79
2023/01/02 00:42:47;;;;;;;6.10;4.10;;;;;;;8.95;72.34;97359.52;105315;1302;49990;-79
2023/01/02 00:45:18;;;;;;;8.70;5.40;;;;;;;8.98;72.55;97361.71;105318;1294;23410;-79
2023/01/02 00:47:49;;;;;;;7.90;4.40;;;;;;;8.98;72.52;97369.22;105594;1299;22502;-80
2023/01/02 00:50:23;;;;;;;7.20;4.30;;;;;;;8.96;72.78;97370.80;105611;1296;22470;-79
2023/01/02 00:52:54;;;;;;;8.10;4.70;;;;;;;8.97;72.82;97374.45;105306;1295;48916;-79
2023/01/02 00:55:25;;;;;;;6.40;3.50;;;;;;;8.95;72.79;97375.23;105388;1293;22441;-79
2023/01/02 00:57:56;;;;;;;4.90;3.40;;;;;;;8.93;73.16;97372.58;105328;1278;22444;-79
2023/01/02 01:00:28;;;;;;;6.40;3.30;;;;;;;8.96;73.50;97361.00;105365;1288;22465;-79
2023/01/02 01:02:59;;;;;;;6.10;3.50;;;;;;;8.95;73.80;97357.61;105506;1295;50842;-80
2023/01/02 01:05:31;;;;;;;6.10;3.80;;;;;;;8.91;74.03;97348.44;105637;1295;22486;-80
2023/01/02 01:08:02;;;;;;;5.80;3.20;;;;;;;8.91;74.24;97350.23;105622;1302;22485;-81
2023/01/02 01:10:35;;;;;;;5.50;3.40;;;;;;;8.90;74.53;97357.41;105584;1292;38819;-80
2023/01/02 01:13:07;;;;;;;7.60;3.80;;;;;;;8.88;74.52;97357.92;105522;1295;49886;-80
2023/01/02 01:15:40;;;;;;;9.10;3.70;;;;;;;8.87;74.73;97364.95;105624;1294;22479;-80
2023/01/02 01:18:12;;;;;;;8.60;4.00;;;;;;;8.84;74.75;97358.40;105548;1275;22502;-80
2023/01/02 01:20:43;;;;;;;7.80;4.20;;;;;;;8.84;74.84;97354.16;105549;1300;83917;-80
2023/01/02 01:23:15;;;;;;;9.20;4.30;;;;;;;8.83;74.93;97352.09;105488;1295;50977;-80
2023/01/02 01:25:46;;;;;;;6.90;4.30;;;;;;;8.82;74.90;97353.09;105595;1287;22514;-80
2023/01/02 01:28:25;;;;;;;7.20;3.80;;;;;;;8.78;74.97;97352.69;105615;1293;22482;-79
2023/01/02 01:31:02;;;;;;;6.60;4.50;;;;;;;8.75;75.17;97354.09;105546;1304;46296;-80
2023/01/02 01:33:36;;;;;;;7.20;4.30;;;;;;;8.71;75.16;97344.29;105492;1292;65701;-79
2023/01/02 01:36:10;;;;;;;6.70;4.50;;;;;;;8.70;75.22;97335.77;105637;1302;22655;-80
2023/01/02 01:38:42;;;;;;;7.00;4.50;;;;;;;8.68;75.17;97328.61;105342;1302;22492;-80
2023/01/02 01:41:17;;;;;;;7.00;3.70;;;;;;;8.68;75.66;97319.99;105631;1295;34003;-80
2023/01/02 01:43:50;;;;;;;6.80;3.90;;;;;;;8.70;75.87;97311.19;105656;1300;35531;-80
2023/01/02 01:46:26;;;;;;;5.60;3.70;;;;;;;8.71;75.96;97313.84;105606;1293;24508;-79
2023/01/02 01:49:03;;;;;;;6.20;4.10;;;;;;;8.70;75.85;97310.93;105354;1288;23846;-80
2023/01/02 01:51:39;;;;;;;7.10;4.50;;;;;;;8.69;76.05;97311.55;105172;1294;124915;-80
2023/01/02 01:54:13;;;;;;;4.00;2.80;;;;;;;8.69;76.17;97306.37;105520;1302;30882;-80
2023/01/02 01:56:51;;;;;;;8.00;4.70;;;;;;;8.69;76.26;97312.81;105648;1277;22498;-80
2023/01/02 01:59:22;;;;;;;7.30;4.20;;;;;;;8.66;76.31;97306.19;105330;1302;22474;-80
2023/01/02 02:01:56;;;;;;;6.20;3.50;;;;;;;8.61;76.43;97299.91;105543;1287;37641;-81
2023/01/02 02:04:28;;;;;;;5.00;3.50;;;;;;;8.59;76.77;97301.95;105574;1302;31964;-81
2023/01/02 02:06:59;;;;;;;7.20;3.10;;;;;;;8.61;77.11;97293.03;105587;1302;22530;-80
2023/01/02 02:09:37;;;;;;;6.10;4.00;;;;;;;8.62;77.08;97296.00;105594;1302;22483;-80
2023/01/02 02:12:11;;;;;;;9.00;3.70;;;;;;;8.60;77.07;97299.79;105444;1281;72260;-80
2023/01/02 02:14:42;;;;;;;4.00;2.90;;;;;;;8.51;76.96;97291.50;105620;1301;22470;-81
2023/01/02 02:17:26;;;;;;;7.90;3.60;;;;;;;8.37;77.25;97300.52;105597;1300;22625;-80
2023/01/02 02:20:19;;;;;;;8.10;4.10;;;;;;;8.24;77.74;97301.83;105585;1278;22471;-81
2023/01/02 02:23:22;;;;;;;6.10;3.40;;;;;;;8.18;78.20;97296.68;103973;1301;2146737;-81
2023/01/02 02:26:20;;;;;;;8.50;3.50;;;;;;;8.16;78.74;97301.45;105543;1296;22546;-81
2023/01/02 02:29:12;;;;;;;6.10;3.90;;;;;;;8.20;78.97;97305.68;105547;1305;22479;-80
2023/01/02 02:31:51;;;;;;;5.20;3.10;;;;;;;8.19;79.04;97299.59;105445;1302;104642;-80
2023/01/02 02:34:30;;;;;;;7.40;4.00;;;;;;;8.19;79.53;97299.13;105528;1287;69552;-80
2023/01/02 02:37:08;;;;;;;5.20;3.20;;;;;;;8.21;79.79;97288.98;105571;1294;22482;-80
2023/01/02 02:39:51;;;;;;;6.40;3.90;;;;;;;8.19;79.77;97301.07;105330;1281;22436;-79
2023/01/02 02:42:33;;;;;;;6.70;3.90;;;;;;;8.13;79.84;97294.60;105230;1288;46528;-79
2023/01/02 02:45:14;;;;;;;6.90;4.00;;;;;;;8.10;80.15;97286.07;105283;1303;22470;-79
2023/01/02 02:47:52;;;;;;;7.10;4.10;;;;;;;8.11;80.59;97288.98;105592;1280;22490;-79
2023/01/02 02:50:33;;;;;;;7.90;4.10;;;;;;;8.11;80.56;97285.13;105585;1300;22672;-80
2023/01/02 02:53:09;;;;;;;6.40;3.60;;;;;;;8.11;80.91;97290.35;105477;1302;119468;-79
2023/01/02 02:55:44;;;;;;;6.10;3.40;;;;;;;8.11;80.83;97292.15;105585;1302;22601;-79
2023/01/02 02:58:19;;;;;;;6.40;4.00;;;;;;;8.11;81.10;97284.50;105599;1303;24937;-79
2023/01/02 03:00:50;;;;;;;8.50;4.80;;;;;;;8.10;80.98;97287.80;105778;1300;37271;-79
2023/01/02 03:03:23;;;;;;;7.70;3.90;;;;;;;8.07;81.15;97287.35;105304;1303;41567;-79
2023/01/02 03:06:18;;;;;;;8.20;3.30;;;;;;;8.04;81.35;97279.92;105416;1299;24025;-80
2023/01/02 03:08:59;;;;;;;7.60;3.30;;;;;;;8.05;81.46;97282.52;105574;1302;22743;-80
2023/01/02 03:11:45;;;;;;;5.70;2.80;;;;;;;8.09;81.50;97280.66;105494;1287;46044;-80
2023/01/02 03:14:28;;;;;;;5.90;3.10;;;;;;;8.09;81.44;97280.67;105549;1302;60696;-80
2023/01/02 03:17:04;;;;;;;5.80;3.40;;;;;;;8.10;81.40;97270.80;105748;1281;24332;-80
2023/01/02 03:19:42;;;;;;;9.90;5.10;;;;;;;8.12;81.35;97283.08;105876;1287;22594;-79
2023/01/02 03:22:19;;;;;;;5.20;3.40;;;;;;;8.09;81.15;97276.81;105648;1302;57472;-80
2023/01/02 03:24:52;;;;;;;6.00;3.70;;;;;;;8.06;81.38;97277.98;105612;1294;22452;-80
2023/01/02 03:27:30;;;;;;;6.80;4.10;;;;;;;8.03;81.24;97279.49;105596;1284;22463;-79
2023/01/02 03:30:09;;;;;;;6.00;3.10;;;;;;;8.01;81.38;97278.92;105571;1282;22499;-80
2023/01/02 03:32:47;;;;;;;7.50;3.40;;;;;;;7.99;81.32;97281.38;105699;1273;82237;-80
2023/01/02 03:35:25;;;;;;;6.10;3.80;;;;;;;7.93;81.36;97277.20;105785;1286;22547;-80
2023/01/02 03:37:59;;;;;;;6.90;3.50;;;;;;;7.86;81.52;97281.16;105686;1301;22452;-80
2023/01/02 03:40:37;;;;;;;11.40;3.80;;;;;;;7.87;81.70;97273.09;105807;1294;24280;-79
2023/01/02 03:43:14;;;;;;;6.40;3.90;;;;;;;7.88;81.82;97283.72;105321;1304;71905;-80
2023/01/02 03:45:54;;;;;;;6.90;4.90;;;;;;;7.93;81.96;97280.20;105545;1289;22475;-80
2023/01/02 03:48:34;;;;;;;7.80;3.50;;;;;;;7.98;81.72;97285.70;105506;1288;22488;-80
2023/01/02 03:51:09;;;;;;;4.80;3.20;;;;;;;7.98;81.52;97288.39;105475;1295;54096;-80
2023/01/02 03:53:41;;;;;;;6.00;3.00;;;;;;;7.95;81.38;97286.56;105513;1286;56677;-79
2023/01/02 03:56:24;;;;;;;6.90;4.50;;;;;;;7.95;81.44;97292.73;105580;1287;22473;-79
2023/01/02 03:59:02;;;;;;;5.40;3.80;;;;;;;7.96;81.34;97288.41;105389;1286;24319;-79
2023/01/02 04:01:40;;;;;;;9.60;4.60;;;;;;;7.94;81.53;97291.09;105469;1280;61011;-79
2023/01/02 04:04:19;;;;;;;7.20;4.20;;;;;;;7.96;81.44;97286.88;105399;1287;61759;-80
2023/01/02 04:06:58;;;;;;;6.20;3.40;;;;;;;7.92;81.23;97290.38;105253;1281;24339;-80
2023/01/02 04:09:32;;;;;;;6.10;4.10;;;;;;;7.92;81.52;97289.27;105443;1285;23663;-80
2023/01/02 04:12:11;;;;;;;5.40;3.00;;;;;;;7.94;81.40;97288.70;105176;1287;68895;-79
2023/01/02 04:14:47;;;;;;;6.10;3.30;;;;;;;7.97;81.38;97292.93;105442;1287;22634;-80
2023/01/02 04:17:22;;;;;;;5.00;3.70;;;;;;;7.98;81.29;97294.46;105416;1280;22451;-80
2023/01/02 04:19:57;;;;;;;7.50;4.50;;;;;;;7.97;81.31;97293.82;105416;1286;22458;-79
2023/01/02 04:22:32;;;;;;;7.20;4.00;;;;;;;7.99;81.32;97289.83;105381;1288;53675;-79
2023/01/02 04:25:09;;;;;;;8.20;4.00;;;;;;;8.03;81.36;97289.68;105412;1287;24592;-80
2023/01/02 04:27:45;;;;;;;6.00;4.30;;;;;;;8.07;81.40;97283.45;105423;1289;22965;-81
2023/01/02 04:30:16;;;;;;;7.90;5.10;;;;;;;8.10;81.37;97288.33;105438;1288;22483;-80
2023/01/02 04:32:51;;;;;;;8.60;4.80;;;;;;;8.08;81.34;97287.78;105340;1288;101190;-80
2023/01/02 04:35:25;;;;;;;8.00;4.60;;;;;;;8.10;81.52;97277.83;105624;1286;22481;-81
2023/01/02 04:37:56;;;;;;;7.50;3.90;;;;;;;8.18;81.61;97279.73;105607;1285;22460;-80
2023/01/02 04:40:31;;;;;;;6.70;4.30;;;;;;;8.20;81.22;97275.36;105612;1286;25390;-80
2023/01/02 04:43:09;;;;;;;6.70;4.30;;;;;;;8.17;81.33;97267.77;105442;1295;59609;-80
2023/01/02 04:45:40;;;;;;;8.40;4.30;;;;;;;8.14;81.34;97274.75;105616;1287;22898;-79
2023/01/02 04:48:14;;;;;;;8.60;4.20;;;;;;;8.14;81.69;97268.41;105579;1284;24259;-80
2023/01/02 04:50:48;;;;;;;5.50;3.70;;;;;;;8.19;81.74;97274.67;105516;1280;80948;-81
2023/01/02 04:53:20;;;;;;;5.70;3.20;;;;;;;8.22;81.66;97274.22;105345;1280;150695;-80
2023/01/02 04:55:57;;;;;;;6.60;4.40;;;;;;;8.27;81.98;97272.63;105562;1303;22472;-80
2023/01/02 04:58:28;;;;;;;3.30;2.30;;;;;;;8.37;81.70;97281.17;105549;1284;25345;-80
2023/01/02 05:01:00;;;;;;;3.90;2.90;;;;;;;8.39;81.60;97281.88;105583;1279;43384;-81
2023/01/02 05:03:34;;;;;;;5.10;3.40;;;;;;;8.44;81.60;97271.27;105531;1280;47243;-81
2023/01/02 05:06:10;;;;;;;6.80;4.00;;;;;;;8.48;81.19;97272.27;105575;1280;22532;-81
2023/01/02 05:08:43;;;;;;;5.20;4.00;;;;;;;8.44;80.98;97271.38;105603;1280;22464;-81
2023/01/02 05:11:19;;;;;;;4.30;3.00;;;;;;;8.37;81.01;97261.70;105542;1279;61059;-81
2023/01/02 05:13:51;;;;;;;6.90;4.20;;;;;;;8.28;81.16;97260.98;105374;1281;75000;-80
2023/01/02 05:16:22;;;;;;;5.60;3.30;;;;;;;8.21;81.32;97253.35;105455;1280;22476;-81
2023/01/02 05:18:54;;;;;;;5.80;3.90;;;;;;;8.20;81.50;97254.40;105447;1281;22485;-81
2023/01/02 05:24:18;;;;;;;6.10;3.10;;;;;;;8.24;81.65;97242.55;105386;1281;69568;-80
2023/01/02 05:26:51;;;;;;;6.60;4.00;;;;;;;8.28;81.80;97246.66;105428;1280;22477;-80
2023/01/02 05:29:25;;;;;;;6.80;4.50;;;;;;;8.33;81.78;97242.82;105455;1288;22947;-80
2023/01/02 05:31:56;;;;;;;5.70;3.20;;;;;;;8.37;81.66;97242.08;103585;1286;2593486;-81
2023/01/02 05:34:28;;;;;;;7.70;3.90;;;;;;;8.38;81.64;97232.42;105588;1279;34227;-81
2023/01/02 05:37:02;;;;;;;7.70;3.00;;;;;;;8.37;81.52;97235.81;105591;1286;22530;-80
2023/01/02 05:39:36;;;;;;;5.10;2.90;;;;;;;8.38;81.63;97224.98;105596;1280;24297;-80
2023/01/02 05:42:08;;;;;;;5.70;3.40;;;;;;;8.34;81.42;97233.73;105441;1288;102225;-81
2023/01/02 05:44:40;;;;;;;7.80;4.20;;;;;;;8.34;81.44;97229.96;105555;1283;22517;-79
2023/01/02 05:47:12;;;;;;;6.10;3.10;;;;;;;8.36;81.41;97234.36;105562;1281;22481;-80
2023/01/02 05:49:46;;;;;;;5.80;3.30;;;;;;;8.39;81.33;97232.60;105566;1280;23277;-80
2023/01/02 05:52:20;;;;;;;5.40;3.40;;;;;;;8.42;81.08;97223.94;105395;1283;62903;-79
2023/01/02 05:54:52;;;;;;;5.70;3.60;;;;;;;8.42;80.99;97224.64;105586;1287;24273;-80
2023/01/02 05:57:24;;;;;;;7.40;3.40;;;;;;;8.40;80.93;97218.27;105594;1279;22490;-80
2023/01/02 05:59:55;;;;;;;5.80;3.80;;;;;;;8.42;80.94;97220.05;105594;1278;25991;-80
2023/01/02 06:02:27;;;;;;;5.30;3.70;;;;;;;8.41;80.75;97220.50;105346;1288;117195;-80
2023/01/02 06:04:58;;;;;;;6.40;3.30;;;;;;;8.38;80.71;97221.59;105605;1278;22487;-79
2023/01/02 06:07:36;;;;;;;3.80;2.40;;;;;;;8.38;80.68;97216.48;105629;1295;24260;-79
2023/01/02 06:10:10;;;;;;;6.60;3.20;;;;;;;8.39;80.66;97215.52;105338;1286;24270;-79
2023/01/02 06:12:41;;;;;;;7.70;3.50;;;;;;;8.36;80.59;97226.91;105265;1295;59730;-79
2023/01/02 06:15:17;;;;;;;5.90;2.90;;;;;;;8.33;80.75;97228.18;105353;1288;22472;-79
2023/01/02 06:17:49;;;;;;;4.30;3.10;;;;;;;8.33;80.80;97218.35;105351;1281;22543;-79
2023/01/02 06:20:20;;;;;;;4.60;3.30;;;;;;;8.28;80.70;97227.85;105561;1281;22469;-79
2023/01/02 06:22:51;;;;;;;5.90;3.90;;;;;;;8.25;80.93;97230.35;105199;1286;82835;-79
2023/01/02 06:25:23;;;;;;;5.50;3.70;;;;;;;8.22;80.83;97229.06;105298;1281;22456;-79
2023/01/02 06:27:56;;;;;;;5.50;3.60;;;;;;;8.20;80.89;97225.51;105366;1285;22438;-79
2023/01/02 06:30:30;;;;;;;4.70;3.10;;;;;;;8.20;81.06;97214.41;105315;1287;25352;-78
2023/01/02 06:33:01;;;;;;;6.40;3.10;;;;;;;8.25;81.06;97216.14;105256;1285;59317;-79
2023/01/02 06:35:32;;;;;;;6.50;3.20;;;;;;;8.30;80.80;97216.56;105381;1279;23706;-79
2023/01/02 06:38:04;;;;;;;5.70;3.20;;;;;;;8.30;80.63;97214.20;105351;1285;24251;-79
2023/01/02 06:40:38;;;;;;;4.30;3.00;;;;;;;8.33;80.61;97214.66;105368;1274;22510;-79
2023/01/02 06:43:11;;;;;;;4.30;3.30;;;;;;;8.42;80.36;97213.43;105264;1286;48956;-78
2023/01/02 06:45:42;;;;;;;4.90;2.90;;;;;;;8.50;80.03;97208.45;105373;1288;22508;-79
2023/01/02 06:48:16;;;;;;;8.50;4.20;;;;;;;8.52;79.75;97212.64;105339;1280;22542;-78
2023/01/02 06:50:47;;;;;;;5.70;2.90;;;;;;;8.52;79.72;97218.66;105251;1286;96347;-79
2023/01/02 06:53:19;;;;;;;4.10;2.40;;;;;;;8.55;79.53;97220.64;105234;1281;98250;-79
2023/01/02 06:55:57;;;;;;;4.80;3.00;;;;;;;8.59;79.42;97223.08;105357;1279;22475;-78
2023/01/02 06:58:35;;;;;;;6.70;3.50;;;;;;;8.64;79.25;97210.48;105373;1280;24274;-78
2023/01/02 07:01:10;;;;;;;6.60;3.30;;;;;;;8.72;79.12;97213.93;105365;1286;51271;-78
2023/01/02 07:03:42;;;;;;;5.90;2.80;;;;;;;8.81;78.78;97221.95;103766;1280;2078467;-78
2023/01/02 07:06:16;;;;;;;4.90;2.40;;;;;;;8.88;78.53;97219.38;105277;1287;22479;-78
2023/01/02 07:08:49;;;;;;;3.50;2.50;;;;;;;8.90;78.07;97219.29;105338;1303;22960;-79
2023/01/02 07:11:24;;;;;;;6.10;3.60;;;;;;;8.89;77.96;97223.67;105247;1297;52464;-78
2023/01/02 07:13:56;;;;;;;4.90;3.30;;;;;;;8.92;77.89;97226.64;105194;1286;59605;-79
2023/01/02 07:16:29;;;;;;;7.00;3.40;;;;;;;9.05;77.73;97224.20;105672;1280;23280;-80
2023/01/02 07:19:01;;;;;;;5.30;3.00;;;;;;;9.22;77.27;97212.00;105533;1302;22468;-80
2023/01/02 07:21:32;;;;;;;7.20;4.10;;;;;;;9.35;76.68;97217.65;105380;1288;48577;-79
2023/01/02 07:24:03;;;;;;;6.40;3.00;;;;;;;9.49;76.43;97219.21;105268;1296;32243;-79
2023/01/02 07:26:35;;;;;;;4.80;3.80;;;;;;;9.63;75.94;97223.42;105314;1304;22481;-79
2023/01/02 07:29:09;;;;;;;7.60;3.40;;;;;;;9.73;75.22;97215.02;105236;1297;25896;-78
2023/01/02 07:31:40;;;;;;;5.40;2.70;;;;;;;9.74;74.88;97218.04;105304;1302;55702;-79
2023/01/02 07:34:11;;;;;;;3.10;2.00;;;;;;;9.76;74.76;97216.08;105530;1279;34524;-79
2023/01/02 07:36:43;;;;;;;7.50;3.70;;;;;;;9.78;74.20;97213.28;105429;1303;22457;-79
2023/01/02 07:39:14;;;;;;;5.90;3.10;;;;;;;9.79;74.26;97222.13;105537;1286;22468;-78
2023/01/02 07:41:45;;;;;;;4.90;2.60;;;;;;;9.84;74.20;97223.48;105307;1296;63711;-77
2023/01/02 07:44:17;;;;;;;6.30;2.80;;;;;;;9.95;73.68;97222.46;105598;1286;37238;-78
2023/01/02 07:46:48;;;;;;;7.80;2.80;;;;;;;10.00;73.22;97215.45;105435;1285;22510;-79
2023/01/02 07:49:19;;;;;;;4.10;2.50;;;;;;;10.01;73.07;97209.58;105469;1278;22914;-78
2023/01/02 07:51:51;;;;;;;5.50;3.80;;;;;;;9.99;72.78;97210.13;105369;1278;54123;-78
2023/01/02 07:54:25;;;;;;;5.30;3.30;;;;;;;10.01;72.83;97208.77;105261;1294;24130;-78
2023/01/02 07:56:56;;;;;;;6.40;3.30;;;;;;;10.02;72.95;97223.23;105354;1302;22472;-79
2023/01/02 07:59:27;;;;;;;5.70;3.60;;;;;;;10.02;72.79;97223.98;105715;1295;22484;-79
2023/01/02 08:01:58;;;;;;;6.70;3.80;;;;;;;9.98;72.97;97225.29;105271;1282;32181;-78
2023/01/02 08:04:29;;;;;;;5.70;4.00;;;;;;;9.98;73.08;97228.27;105490;1288;22932;-77
2023/01/02 08:07:00;;;;;;;5.70;3.30;;;;;;;9.97;73.03;97227.66;105514;1286;25202;-78
2023/01/02 08:09:31;;;;;;;5.80;4.00;;;;;;;9.93;73.08;97226.17;105567;1288;22617;-78
2023/01/02 08:12:08;;;;;;;6.20;3.80;;;;;;;9.93;73.22;97231.09;105464;1279;50868;-79
2023/01/02 08:14:39;;;;;;;4.90;3.20;;;;;;;9.95;73.21;97227.92;105573;1290;22522;-80
2023/01/02 08:17:11;;;;;;;8.20;4.10;;;;;;;9.98;72.97;97217.51;105623;1289;25500;-79
2023/01/02 08:19:42;;;;;;;6.60;4.00;;;;;;;9.95;72.88;97223.94;105616;1288;22460;-79
2023/01/02 08:22:16;;;;;;;5.90;3.70;;;;;;;9.96;72.84;97224.42;105226;1288;52328;-79
2023/01/02 08:24:47;;;;;;;11.90;5.10;;;;;;;9.96;72.86;97224.68;105392;1280;22508;-79
2023/01/02 08:27:19;;;;;;;7.30;4.30;;;;;;;9.97;72.86;97225.33;105343;1288;22546;-79
2023/01/02 08:29:50;;;;;;;7.50;4.50;;;;;;;9.90;72.81;97225.26;105701;1302;24625;-79
2023/01/02 08:32:21;;;;;;;8.80;5.00;;;;;;;9.89;72.89;97226.00;105242;1280;62052;-79
2023/01/02 08:34:55;;;;;;;9.10;4.80;;;;;;;9.91;72.86;97230.61;105466;1302;22469;-78
2023/01/02 08:37:27;;;;;;;6.20;3.70;;;;;;;9.97;72.70;97228.78;105312;1294;22465;-79
2023/01/02 08:39:58;;;;;;;7.80;4.00;;;;;;;9.95;72.39;97228.55;105263;1302;23274;-79
2023/01/02 08:42:29;;;;;;;5.70;3.70;;;;;;;9.99;72.40;97224.77;105382;1295;66636;-78
2023/01/02 08:45:00;;;;;;;5.90;4.00;;;;;;;9.96;72.26;97231.26;105305;1285;23833;-80
2023/01/02 08:47:32;;;;;;;6.80;3.50;;;;;;;9.95;72.28;97233.74;105609;1286;23634;-80
2023/01/02 08:50:04;;;;;;;5.80;3.60;;;;;;;9.90;72.24;97234.00;105650;1288;22469;-79
2023/01/02 08:52:36;;;;;;;7.60;4.90;;;;;;;9.86;72.44;97224.56;105784;1277;30728;-81
2023/01/02 08:55:08;;;;;;;5.90;3.80;;;;;;;9.89;72.53;97225.41;105671;1287;22489;-81
2023/01/02 08:57:40;;;;;;;9.30;4.60;;;;;;;9.92;72.59;97226.80;105706;1300;24719;-82
2023/01/02 09:00:13;;;;;;;10.70;4.30;;;;;;;9.99;72.41;97225.03;105867;1293;22497;-82
2023/01/02 09:02:44;;;;;;;5.90;3.10;;;;;;;10.05;72.37;97224.89;105629;1299;100345;-81
2023/01/02 09:05:16;;;;;;;8.80;4.40;;;;;;;10.10;72.26;97223.48;105741;1300;22459;-81
2023/01/02 09:07:47;;;;;;;7.40;4.40;;;;;;;10.20;72.14;97226.13;105781;1299;22441;-81
2023/01/02 09:10:18;;;;;;;9.50;4.60;;;;;;;10.31;72.21;97226.44;105855;1300;22911;-81
2023/01/02 09:12:53;;;;;;;12.10;6.10;;;;;;;10.44;71.98;97225.15;105605;1288;56271;-82
2023/01/02 09:15:25;;;;;;;9.70;5.10;;;;;;;10.49;71.36;97225.21;105870;1300;22511;-82
2023/01/02 09:17:58;;;;;;;9.80;4.70;;;;;;;10.50;71.17;97225.38;105839;1295;22481;-81
2023/01/02 09:20:30;;;;;;;8.20;4.50;;;;;;;10.49;70.61;97222.52;105678;1280;24251;-82
2023/01/02 09:23:03;;;;;;;10.10;5.50;;;;;;;10.49;70.80;97220.86;105509;1302;73389;-82
2023/01/02 09:25:34;;;;;;;6.60;4.30;;;;;;;10.61;70.65;97216.08;105568;1287;22530;-82
2023/01/02 09:28:06;;;;;;;8.50;5.00;;;;;;;10.64;70.37;97211.50;105603;1294;22521;-82
2023/01/02 09:30:37;;;;;;;8.30;4.60;;;;;;;10.73;70.47;97216.30;105597;1299;22524;-81
2023/01/02 09:33:09;;;;;;;8.70;3.20;;;;;;;10.88;70.63;97209.08;105489;1278;91610;-83
2023/01/02 09:35:40;;;;;;;7.90;4.60;;;;;;;10.99;69.91;97205.39;105592;1293;22563;-82
2023/01/02 09:38:12;;;;;;;7.40;4.50;;;;;;;11.09;69.91;97197.30;105620;1295;22462;-82
2023/01/02 09:40:49;;;;;;;7.30;4.60;;;;;;;11.22;70.02;97191.19;105603;1300;22991;-81
2023/01/02 09:43:29;;;;;;;7.60;3.70;;;;;;;11.41;69.55;97181.38;105650;1294;25378;-81
2023/01/02 09:46:03;;;;;;;7.70;3.60;;;;;;;11.41;68.67;97173.07;105624;1286;22468;-81
2023/01/02 09:48:38;;;;;;;7.40;4.50;;;;;;;11.35;68.20;97163.71;105701;1280;22468;-81
2023/01/02 09:51:11;;;;;;;7.70;4.00;;;;;;;11.39;68.31;97162.27;105628;1302;75569;-82
2023/01/02 09:53:43;;;;;;;6.80;4.10;;;;;;;11.40;68.55;97166.46;105616;1289;25921;-82
2023/01/02 09:56:21;;;;;;;8.10;4.60;;;;;;;11.52;68.51;97168.39;105582;1281;25839;-83
2023/01/02 09:58:59;;;;;;;6.40;4.00;;;;;;;11.61;68.47;97163.75;105671;1296;22482;-81
2023/01/02 10:01:36;;;;;;;7.80;3.90;;;;;;;11.72;68.05;97161.23;105618;1286;34434;-81
2023/01/02 10:04:21;;;;;;;8.90;4.00;;;;;;;11.87;68.43;97154.11;105746;1294;34834;-82
2023/01/02 10:07:00;;;;;;;7.00;4.50;;;;;;;12.06;67.63;97153.66;105640;1300;22473;-82
2023/01/02 10:09:43;;;;;;;7.40;4.40;;;;;;;12.14;67.33;97146.34;105700;1284;22608;-75
2023/01/02 10:12:20;;;;;;;6.50;4.10;;;;;;;12.25;66.87;97150.00;105372;1294;34850;-79
2023/01/02 10:14:59;;;;;;;6.30;4.50;;;;;;;12.32;66.27;97147.92;105550;1293;22508;-80
2023/01/02 10:17:37;;;;;;;7.10;4.10;;;;;;;12.36;66.02;97146.66;105760;1287;22470;-79
2023/01/02 10:20:21;;;;;;;7.40;4.20;;;;;;;12.46;66.19;97142.20;105606;1287;22512;-80
2023/01/02 10:22:57;;;;;;;7.40;4.10;;;;;;;12.60;65.81;97135.29;104320;1295;1810636;-80
2023/01/02 10:25:38;;;;;;;7.20;4.10;;;;;;;12.69;65.79;97135.90;105577;1302;23399;-80
2023/01/02 10:28:22;;;;;;;6.90;4.20;;;;;;;12.83;65.62;97131.27;105573;1303;22501;-80
2023/01/02 10:30:58;;;;;;;4.40;3.30;;;;;;;12.94;65.48;97133.41;105706;1290;23396;-79
2023/01/02 10:33:36;;;;;;;5.10;2.70;;;;;;;13.03;64.47;97129.91;105577;1295;54589;-80
2023/01/02 10:36:20;;;;;;;9.00;3.60;;;;;;;12.91;63.37;97122.04;105696;1302;22474;-80
2023/01/02 10:38:56;;;;;;;8.20;4.20;;;;;;;12.82;63.30;97125.44;105695;1297;22496;-80
2023/01/02 10:41:33;;;;;;;6.30;3.70;;;;;;;12.78;62.89;97114.31;105635;1302;22497;-80
2023/01/02 10:44:07;;;;;;;9.20;4.20;;;;;;;12.77;63.14;97110.62;105623;1294;27560;-79
2023/01/02 10:46:41;;;;;;;8.10;3.70;;;;;;;12.86;63.60;97105.69;105631;1302;22473;-79
2023/01/02 10:49:14;;;;;;;7.50;4.30;;;;;;;12.99;63.85;97103.08;105671;1295;22785;-80
2023/01/02 10:51:51;;;;;;;7.80;3.90;;;;;;;13.18;63.71;97100.87;105618;1302;26944;-79
2023/01/02 10:54:23;;;;;;;6.80;4.60;;;;;;;13.35;63.23;97095.27;105673;1294;23074;-79
2023/01/02 10:56:56;;;;;;;7.80;3.60;;;;;;;13.40;62.93;97091.39;105504;1302;22913;-80
2023/01/02 10:59:30;;;;;;;9.80;3.60;;;;;;;13.45;62.49;97084.77;105688;1277;24271;-80
2023/01/02 11:02:01;;;;;;;10.00;5.50;;;;;;;13.36;61.88;97082.21;104261;1303;1761705;-81
2023/01/02 11:04:42;;;;;;;8.20;5.30;;;;;;;13.32;62.27;97082.40;105547;1294;57246;-80
2023/01/02 11:07:34;;;;;;;10.60;6.20;;;;;;;13.46;62.49;97081.56;105690;1296;22522;-80
2023/01/02 11:10:21;;;;;;;11.80;7.50;;;;;;;13.50;62.59;97072.46;105497;1302;22483;-80
2023/01/02 11:12:52;;;;;;;9.50;4.10;;;;;;;13.58;62.49;97069.73;105479;1300;150080;-80
2023/01/02 11:15:29;;;;;;;6.90;3.90;;;;;;;13.57;62.08;97058.73;105859;1294;25366;-80
2023/01/02 11:18:01;;;;;;;7.40;4.00;;;;;;;13.56;62.17;97056.98;105753;1300;22492;-80
2023/01/02 11:20:35;;;;;;;7.40;4.30;;;;;;;13.67;62.40;97047.79;105758;1294;22462;-80
2023/01/02 11:23:13;;;;;;;7.20;4.30;;;;;;;13.78;62.26;97043.91;105668;1281;80485;-80
2023/01/02 11:25:50;;;;;;;7.60;4.10;;;;;;;13.90;61.81;97044.54;105635;1295;24636;-80
2023/01/02 11:28:24;;;;;;;6.10;3.60;;;;;;;13.99;61.33;97047.23;105681;1287;22435;-80
2023/01/02 11:31:01;;;;;;;11.60;7.60;;;;;;;14.08;61.05;97043.74;105583;1294;22486;-80
2023/01/02 11:33:34;;;;;;;7.50;4.10;;;;;;;14.13;61.28;97042.70;105572;1288;53477;-80
2023/01/02 11:36:19;;;;;;;7.50;4.30;;;;;;;14.13;60.85;97037.38;105636;1294;22474;-80
2023/01/02 11:38:53;;;;;;;5.30;3.30;;;;;;;14.02;60.53;97035.94;105668;1288;22527;-80
2023/01/02 11:43:47;;;;;;;8.30;4.00;;;;;;;13.89;60.60;97029.64;105635;1288;114147;-78
2023/01/02 11:44:26;;;;;;;6.70;3.90;;;;;;;13.81;61.19;97028.73;105610;1302;22468;-78
2023/01/02 11:46:59;;;;;;;8.70;4.10;;;;;;;13.84;61.35;97026.17;105375;1288;22474;-78
2023/01/02 11:49:40;;;;;;;6.40;3.80;;;;;;;13.91;61.22;97027.04;105436;1295;22735;-77
2023/01/02 11:52:13;;;;;;;;;;;;;;;14.00;61.26;97022.17;105372;1300;23612;-77
2023/01/02 11:54:49;;;;;;;9.40;4.50;;;;;;;14.08;60.96;97026.84;105428;1295;22537;-78
2023/01/02 11:57:30;;;;;;;9.90;6.30;;;;;;;14.14;61.01;97023.34;105374;1278;25352;-78
2023/01/02 12:00:09;;;;;;;8.10;4.30;;;;;;;14.21;60.71;97025.04;105398;1294;22509;-78
2023/01/02 12:02:43;;;;;;;11.80;7.30;;;;;;;14.23;60.80;97023.18;102823;1286;3536117;-78
2023/01/02 12:05:21;;;;;;;12.30;7.00;;;;;;;14.33;60.84;97016.20;105409;1286;24264;-82
2023/01/02 12:08:00;;;;;;;13.10;8.60;;;;;;;14.40;60.64;97006.27;105493;1296;22468;-81